Naples, FL

09:39 EDT le 18 septembre 2014 (GMT -0400)
Foxfire | Change Station
CLOSE
Current Station
Stations météorologiques personnelles
Location: Naples, FL
Altitude: 40 ft
Stations météo à proximité

Alt. 40 ft 26.14 °N, 81.75 °W | Updated 4 minutes ago

Mostly Cloudy
Nuageux
79.7 ° F
Paraît 86 ° F
N
3.0
Vent Variable Vent de ENE

Aujourd'hui
Haut(e) -- | Bas -- ° F
--% Risque de précip.
Hier
Haut(e) -- | Bas -- ° F
Precip. -- pouce
7:14 AM 7:28 PM
Lune descendante, 27% visible
Pression 29.92 pouce
Visibilité 10.0 Miles terrestres
Nuages Nuageux 2400 ft
indice de chaleur 86 ° F
Point de rosée 80 ° F
Humidité 100%
Précipitations 1.49 pouce
Profondeur de la couche neigeuse Non disponible.
UV 1 sur 12
Pollen 3.20 sur 12
Qualité de l'air Non disponible.
Flu Activity Non disponible.
METAR KAPF 181253Z 03005KT 10SM BKN024 26/24 A2992 RMK AO2 SLP131 T02610244

More Conditions Fewer Conditions

Pression 29.92 pouce
Visibilité 10.0 Miles terrestres
Nuages Nuageux 2400 ft
indice de chaleur 86 ° F
Point de rosée 80 ° F
Humidité 100%
Précipitations 1.49 pouce
Profondeur de la couche neigeuse Non disponible.
UV 1 sur 12
Pollen 3.20 sur 12
Qualité de l'air Non disponible.
Flu Activity Non disponible.
METAR KAPF 181253Z 03005KT 10SM BKN024 26/24 A2992 RMK AO2 SLP131 T02610244

More Conditions Fewer Conditions

Nowcast | as of 9:24 am EDT on September 18, 2014

Through late this morning...isolated to scattered showers and even a thunderstorm will continue to develop over the Gulf of Mexico and move southeast around 10 mph into the West Coast Metro areas and the southern interior areas of South Florida. Wind gusts up to 30 mph...lightning strikes...and locally heavy rainfall will occur with any storms that do move through the area. If you see lightning or hear thunder move inside until the storms have passed by.

×

10-Day Weather Forecast

Almanac

Astronomie

Sep. 18, 2014 Lever Coucher
Temps réel 07:14 EDT 19:28 EDT
Crépuscule civil 06:51 EDT 19:51 EDT
Crépuscule nautique 06:24 EDT 20:17 EDT
Crépuscule astronomique 05:57 EDT 20:45 EDT
Lune 02:27 EDT 15:57 EDT
Durée de lumière visible 13h 00m
Longueur du jour
12h 13m
Tomorrow will be 1m 31s shorter.
Lune descendante, 27% of the Moon is Illuminated
Aujourd'hui
Lune descendante
Sep 24
Nouveau
Oct 1
Premier quartier
Oct 8
Pleine lune
Oct 15
Dernier quartier

Extrêmes aujourd'hui

State Highs State Lows

Community

WunderPhotos

Upload Photos

1,754,347 Photos téléchargées !

Nearby

Épaisseur de neige

Station Depth Altitude
Pas de nouvelles chutes de neige

Activité sismique

Ville Distance Mag. Time & Date
No recent earthquake activity has been reported nearby.
Minimum magnitude displayed is 2.5.

Températures des eaux côtières

Lieu Température
Naples, FL 87.1 ° F

Stations météo à proximité